sensor_id;sensor_type;location;lat;lon;timestamp;pressure;altitude;pressure_sealevel;temperature;humidity
28428;BME280;15662;49.128;8.520;2023-02-28T00:01:34;101345.44;;;5.46;37.61
28428;BME280;15662;49.128;8.520;2023-02-28T00:04:02;101332.19;;;5.35;37.60
28428;BME280;15662;49.128;8.520;2023-02-28T00:06:31;101341.00;;;5.40;37.62
28428;BME280;15662;49.128;8.520;2023-02-28T00:09:00;101321.63;;;5.31;37.76
28428;BME280;15662;49.128;8.520;2023-02-28T00:11:28;101333.94;;;5.33;37.99
28428;BME280;15662;49.128;8.520;2023-02-28T00:13:57;101331.31;;;5.33;37.98
28428;BME280;15662;49.128;8.520;2023-02-28T00:16:27;101340.94;;;5.34;37.73
28428;BME280;15662;49.128;8.520;2023-02-28T00:18:55;101332.19;;;5.32;37.70
28428;BME280;15662;49.128;8.520;2023-02-28T00:21:25;101325.13;;;5.30;37.78
28428;BME280;15662;49.128;8.520;2023-02-28T00:23:55;101335.63;;;5.30;38.07
28428;BME280;15662;49.128;8.520;2023-02-28T00:26:23;101340.94;;;5.34;37.84
28428;BME280;15662;49.128;8.520;2023-02-28T00:28:52;101339.19;;;5.36;37.94
28428;BME280;15662;49.128;8.520;2023-02-28T00:31:21;101331.25;;;5.30;37.76
28428;BME280;15662;49.128;8.520;2023-02-28T00:33:50;101335.69;;;5.33;38.06
28428;BME280;15662;49.128;8.520;2023-02-28T00:36:21;101325.06;;;5.24;37.82
28428;BME280;15662;49.128;8.520;2023-02-28T00:38:49;101333.00;;;5.31;37.78
28428;BME280;15662;49.128;8.520;2023-02-28T00:41:18;101336.53;;;5.32;38.10
28428;BME280;15662;49.128;8.520;2023-02-28T00:43:47;101341.78;;;5.32;38.16
28428;BME280;15662;49.128;8.520;2023-02-28T00:46:19;101338.13;;;5.17;38.35
28428;BME280;15662;49.128;8.520;2023-02-28T00:48:47;101340.84;;;5.25;38.07
28428;BME280;15662;49.128;8.520;2023-02-28T00:51:15;101333.88;;;5.29;37.94
28428;BME280;15662;49.128;8.520;2023-02-28T00:53:44;101342.66;;;5.31;38.03
28428;BME280;15662;49.128;8.520;2023-02-28T00:56:12;101333.88;;;5.29;37.77
28428;BME280;15662;49.128;8.520;2023-02-28T00:58:41;101335.63;;;5.31;37.81
28428;BME280;15662;49.128;8.520;2023-02-28T01:01:09;101326.81;;;5.26;37.96
28428;BME280;15662;49.128;8.520;2023-02-28T01:03:38;101340.06;;;5.34;38.13
28428;BME280;15662;49.128;8.520;2023-02-28T01:06:07;101337.44;;;5.35;38.08
28428;BME280;15662;49.128;8.520;2023-02-28T01:08:35;101337.44;;;5.35;38.20
28428;BME280;15662;49.128;8.520;2023-02-28T01:11:11;101318.13;;;5.30;37.84
28428;BME280;15662;49.128;8.520;2023-02-28T01:13:42;101326.88;;;5.31;38.05
28428;BME280;15662;49.128;8.520;2023-02-28T01:16:13;101322.47;;;5.28;37.99
28428;BME280;15662;49.128;8.520;2023-02-28T01:18:42;101337.44;;;5.35;38.06
28428;BME280;15662;49.128;8.520;2023-02-28T01:21:16;101329.53;;;5.32;37.86
28428;BME280;15662;49.128;8.520;2023-02-28T01:23:45;101332.13;;;5.29;37.95
28428;BME280;15662;49.128;8.520;2023-02-28T01:26:21;101329.50;;;5.28;38.29
28428;BME280;15662;49.128;8.520;2023-02-28T01:28:51;101322.44;;;5.25;38.30
28428;BME280;15662;49.128;8.520;2023-02-28T01:31:21;101326.81;;;5.25;38.43
28428;BME280;15662;49.128;8.520;2023-02-28T01:33:49;101323.31;;;5.23;38.51
28428;BME280;15662;49.128;8.520;2023-02-28T01:36:23;101325.06;;;5.24;38.13
28428;BME280;15662;49.128;8.520;2023-02-28T01:38:52;101328.56;;;5.23;38.44
28428;BME280;15662;49.128;8.520;2023-02-28T01:41:28;101318.81;;;5.17;38.57
28428;BME280;15662;49.128;8.520;2023-02-28T01:44:06;101325.00;;;5.19;38.42
28428;BME280;15662;49.128;8.520;2023-02-28T01:46:36;101323.25;;;5.18;38.60
28428;BME280;15662;49.128;8.520;2023-02-28T01:49:15;101323.16;;;5.12;38.63
28428;BME280;15662;49.128;8.520;2023-02-28T01:51:49;101324.88;;;5.08;39.06
28428;BME280;15662;49.128;8.520;2023-02-28T01:54:34;101324.88;;;5.08;38.50
28428;BME280;15662;49.128;8.520;2023-02-28T01:57:14;101314.31;;;5.04;38.47
28428;BME280;15662;49.128;8.520;2023-02-28T02:00:08;101317.84;;;5.06;38.66
28428;BME280;15662;49.128;8.520;2023-02-28T02:02:45;101315.19;;;5.04;38.66
28428;BME280;15662;49.128;8.520;2023-02-28T02:05:28;101300.19;;;4.94;38.69
28428;BME280;15662;49.128;8.520;2023-02-28T02:08:09;101315.19;;;5.03;39.04
28428;BME280;15662;49.128;8.520;2023-02-28T02:10:47;101323.00;;;4.98;38.64
28428;BME280;15662;49.128;8.520;2023-02-28T02:13:45;101316.91;;;5.02;38.94
28428;BME280;15662;49.128;8.520;2023-02-28T02:25:42;101310.44;;;4.76;39.39
28428;BME280;15662;49.128;8.520;2023-02-28T02:34:36;101306.06;;;4.76;39.21
28428;BME280;15662;49.128;8.520;2023-02-28T02:39:48;101310.38;;;4.71;39.84
28428;BME280;15662;49.128;8.520;2023-02-28T02:42:28;101303.44;;;4.73;39.46
28428;BME280;15662;49.128;8.520;2023-02-28T02:45:19;101307.78;;;4.73;39.57
28428;BME280;15662;49.128;8.520;2023-02-28T02:47:50;101298.94;;;4.66;39.78
28428;BME280;15662;49.128;8.520;2023-02-28T02:50:25;101307.75;;;4.71;39.38
28428;BME280;15662;49.128;8.520;2023-02-28T02:53:01;101313.00;;;4.68;39.62
28428;BME280;15662;49.128;8.520;2023-02-28T02:55:36;101285.69;;;4.55;39.78
28428;BME280;15662;49.128;8.520;2023-02-28T02:58:16;101308.56;;;4.65;39.77
28428;BME280;15662;49.128;8.520;2023-02-28T03:00:52;101296.25;;;4.63;40.02
28428;BME280;15662;49.128;8.520;2023-02-28T03:03:33;101284.72;;;4.50;40.09
28428;BME280;15662;49.128;8.520;2023-02-28T03:06:03;101297.94;;;4.55;39.97
28428;BME280;15662;49.128;8.520;2023-02-28T03:08:37;101311.13;;;4.59;40.18
28428;BME280;15662;49.128;8.520;2023-02-28T03:11:13;101306.75;;;4.60;40.42
28428;BME280;15662;49.128;8.520;2023-02-28T03:28:22;101314.56;;;4.54;40.56
28428;BME280;15662;49.128;8.520;2023-02-28T03:37:13;101298.69;;;4.46;40.21
28428;BME280;15662;49.128;8.520;2023-02-28T03:39:59;101303.09;;;4.49;40.62
28428;BME280;15662;49.128;8.520;2023-02-28T03:42:31;101307.50;;;4.50;40.10
28428;BME280;15662;49.128;8.520;2023-02-28T03:45:10;101303.13;;;4.52;40.50
28428;BME280;15662;49.128;8.520;2023-02-28T03:47:46;101306.63;;;4.51;40.49
28428;BME280;15662;49.128;8.520;2023-02-28T03:50:38;101302.22;;;4.50;40.57
28428;BME280;15662;49.128;8.520;2023-02-28T03:56:02;101311.00;;;4.50;40.48
28428;BME280;15662;49.128;8.520;2023-02-28T03:59:02;101300.38;;;4.43;40.62
28428;BME280;15662;49.128;8.520;2023-02-28T04:01:43;101297.72;;;4.41;40.81
28428;BME280;15662;49.128;8.520;2023-02-28T04:04:13;101294.97;;;4.32;40.67
28428;BME280;15662;49.128;8.520;2023-02-28T04:06:43;101295.84;;;4.32;40.95
28428;BME280;15662;49.128;8.520;2023-02-28T04:09:14;101309.09;;;4.42;40.77
28428;BME280;15662;49.128;8.520;2023-02-28T04:11:48;101286.28;;;4.36;40.87
28428;BME280;15662;49.128;8.520;2023-02-28T04:14:17;101308.25;;;4.43;40.70
28428;BME280;15662;49.128;8.520;2023-02-28T04:16:46;101305.59;;;4.39;41.03
28428;BME280;15662;49.128;8.520;2023-02-28T04:19:15;101311.75;;;4.43;40.67
28428;BME280;15662;49.128;8.520;2023-02-28T04:21:50;101296.84;;;4.39;41.07
28428;BME280;15662;49.128;8.520;2023-02-28T04:24:23;101290.72;;;4.38;40.94
28428;BME280;15662;49.128;8.520;2023-02-28T04:26:55;101316.16;;;4.44;41.17
28428;BME280;15662;49.128;8.520;2023-02-28T04:29:30;101306.56;;;4.48;41.09
28428;BME280;15662;49.128;8.520;2023-02-28T04:32:01;101314.47;;;4.49;41.19
28428;BME280;15662;49.128;8.520;2023-02-28T04:34:31;101284.53;;;4.35;40.86
28428;BME280;15662;49.128;8.520;2023-02-28T04:37:00;101292.59;;;4.49;41.14
28428;BME280;15662;49.128;8.520;2023-02-28T04:39:41;101313.75;;;4.61;41.05
28428;BME280;15662;49.128;8.520;2023-02-28T04:42:10;101310.25;;;4.62;41.52
28428;BME280;15662;49.128;8.520;2023-02-28T04:44:40;101283.03;;;4.54;41.14
28428;BME280;15662;49.128;8.520;2023-02-28T04:47:08;101291.88;;;4.62;41.21
28428;BME280;15662;49.128;8.520;2023-02-28T04:49:37;101301.56;;;4.66;41.39
28428;BME280;15662;49.128;8.520;2023-02-28T04:52:05;101281.31;;;4.57;41.54
28428;BME280;15662;49.128;8.520;2023-02-28T04:54:35;101301.63;;;4.72;41.55
28428;BME280;15662;49.128;8.520;2023-02-28T04:57:03;101301.63;;;4.69;41.68
28428;BME280;15662;49.128;8.520;2023-02-28T04:59:32;101308.63;;;4.70;41.55
28428;BME280;15662;49.128;8.520;2023-02-28T05:02:00;101298.94;;;4.66;41.87
28428;BME280;15662;49.128;8.520;2023-02-28T05:04:36;101313.06;;;4.76;41.87
28428;BME280;15662;49.128;8.520;2023-02-28T05:07:04;101307.88;;;4.79;41.62
28428;BME280;15662;49.128;8.520;2023-02-28T05:09:33;101317.59;;;4.87;41.91
28428;BME280;15662;49.128;8.520;2023-02-28T05:12:02;101301.75;;;4.81;41.40
28428;BME280;15662;49.128;8.520;2023-02-28T05:14:31;101301.81;;;4.84;41.63
28428;BME280;15662;49.128;8.520;2023-02-28T05:17:03;101315.06;;;4.95;41.29
28428;BME280;15662;49.128;8.520;2023-02-28T05:19:31;101297.50;;;4.92;41.58
28428;BME280;15662;49.128;8.520;2023-02-28T05:21:59;101313.44;;;5.03;41.46
28428;BME280;15662;49.128;8.520;2023-02-28T05:24:28;101301.94;;;4.95;41.85
28428;BME280;15662;49.128;8.520;2023-02-28T05:26:56;101303.69;;;4.96;41.71
28428;BME280;15662;49.128;8.520;2023-02-28T05:29:26;101319.56;;;5.04;41.51
28428;BME280;15662;49.128;8.520;2023-02-28T05:31:54;101309.06;;;5.07;41.50
28428;BME280;15662;49.128;8.520;2023-02-28T05:34:23;101316.06;;;5.03;41.29
28428;BME280;15662;49.128;8.520;2023-02-28T05:36:52;101306.44;;;5.04;41.54
28428;BME280;15662;49.128;8.520;2023-02-28T05:39:21;101316.19;;;5.15;41.74
28428;BME280;15662;49.128;8.520;2023-02-28T05:41:50;101313.50;;;5.11;41.22
28428;BME280;15662;49.128;8.520;2023-02-28T05:44:19;101323.19;;;5.13;41.58
28428;BME280;15662;49.128;8.520;2023-02-28T05:46:47;101306.50;;;5.08;41.62
28428;BME280;15662;49.128;8.520;2023-02-28T05:49:17;101312.63;;;5.12;41.40
28428;BME280;15662;49.128;8.520;2023-02-28T05:51:45;101309.94;;;5.04;41.65
28428;BME280;15662;49.128;8.520;2023-02-28T05:54:14;101308.19;;;5.03;41.32
28428;BME280;15662;49.128;8.520;2023-02-28T05:56:43;101333.66;;;5.10;41.47
28428;BME280;15662;49.128;8.520;2023-02-28T05:59:15;101321.28;;;5.02;41.31
28428;BME280;15662;49.128;8.520;2023-02-28T06:01:45;101319.53;;;5.02;41.72
28428;BME280;15662;49.128;8.520;2023-02-28T06:04:18;101310.69;;;4.96;41.49
28428;BME280;15662;49.128;8.520;2023-02-28T06:06:58;101312.41;;;4.92;41.80
28428;BME280;15662;49.128;8.520;2023-02-28T06:09:28;101310.63;;;4.89;41.46
28428;BME280;15662;49.128;8.520;2023-02-28T06:12:01;101310.66;;;4.91;41.74
28428;BME280;15662;49.128;8.520;2023-02-28T06:14:33;101313.25;;;4.89;41.53
28428;BME280;15662;49.128;8.520;2023-02-28T06:17:05;101317.66;;;4.90;41.55
28428;BME280;15662;49.128;8.520;2023-02-28T06:19:34;101309.72;;;4.86;41.80
28428;BME280;15662;49.128;8.520;2023-02-28T06:22:08;101316.72;;;4.87;41.77
28428;BME280;15662;49.128;8.520;2023-02-28T06:24:36;101317.59;;;4.87;41.74
28428;BME280;15662;49.128;8.520;2023-02-28T06:27:04;101325.53;;;4.89;41.69
28428;BME280;15662;49.128;8.520;2023-02-28T06:29:37;101317.59;;;4.87;41.82
28428;BME280;15662;49.128;8.520;2023-02-28T06:32:07;101326.41;;;4.91;41.97
28428;BME280;15662;49.128;8.520;2023-02-28T06:34:36;101329.03;;;4.89;41.84
28428;BME280;15662;49.128;8.520;2023-02-28T06:37:05;101336.16;;;4.98;41.92
28428;BME280;15662;49.128;8.520;2023-02-28T06:39:35;101315.03;;;4.90;41.90
28428;BME280;15662;49.128;8.520;2023-02-28T06:42:04;101329.09;;;4.96;41.64
28428;BME280;15662;49.128;8.520;2023-02-28T06:44:34;101330.03;;;5.01;41.56
28428;BME280;15662;49.128;8.520;2023-02-28T06:47:08;101346.72;;;5.06;41.80
28428;BME280;15662;49.128;8.520;2023-02-28T06:49:39;101336.91;;;4.91;41.90
28428;BME280;15662;49.128;8.520;2023-02-28T06:52:08;101353.69;;;5.02;41.72
28428;BME280;15662;49.128;8.520;2023-02-28T06:54:40;101352.81;;;5.02;41.95
28428;BME280;15662;49.128;8.520;2023-02-28T06:57:10;101350.28;;;5.08;41.68
28428;BME280;15662;49.128;8.520;2023-02-28T06:59:39;101370.56;;;5.21;42.16
28428;BME280;15662;49.128;8.520;2023-02-28T07:02:11;101357.41;;;5.18;41.90
28428;BME280;15662;49.128;8.520;2023-02-28T07:04:41;101371.44;;;5.20;41.84
28428;BME280;15662;49.128;8.520;2023-02-28T07:07:14;101360.88;;;5.14;41.67
28428;BME280;15662;49.128;8.520;2023-02-28T07:09:43;101358.19;;;5.11;41.81
28428;BME280;15662;49.128;8.520;2023-02-28T07:12:14;101384.69;;;5.28;42.07
28428;BME280;15662;49.128;8.520;2023-02-28T07:14:43;101374.13;;;5.26;41.62
28428;BME280;15662;49.128;8.520;2023-02-28T07:17:11;101360.09;;;5.24;42.14
28428;BME280;15662;49.128;8.520;2023-02-28T07:19:40;101381.25;;;5.33;41.57
28428;BME280;15662;49.128;8.520;2023-02-28T07:22:08;101375.94;;;5.30;41.77
28428;BME280;15662;49.128;8.520;2023-02-28T07:24:36;101388.34;;;5.40;41.90
28428;BME280;15662;49.128;8.520;2023-02-28T07:27:08;101401.47;;;5.40;42.03
28428;BME280;15662;49.128;8.520;2023-02-28T07:29:36;101384.69;;;5.28;42.10
28428;BME280;15662;49.128;8.520;2023-02-28T07:32:06;101392.66;;;5.34;41.66
28428;BME280;15662;49.128;8.520;2023-02-28T07:34:35;101393.53;;;5.33;41.50
28428;BME280;15662;49.128;8.520;2023-02-28T07:37:03;101384.75;;;5.34;41.89
28428;BME280;15662;49.128;8.520;2023-02-28T07:39:32;101381.31;;;5.41;41.71
28428;BME280;15662;49.128;8.520;2023-02-28T07:42:07;101376.91;;;5.37;41.68
28428;BME280;15662;49.128;8.520;2023-02-28T07:44:40;101380.44;;;5.37;41.81
28428;BME280;15662;49.128;8.520;2023-02-28T07:47:10;101406.91;;;5.53;41.38
28428;BME280;15662;49.128;8.520;2023-02-28T07:49:39;101386.63;;;5.46;41.62
28428;BME280;15662;49.128;8.520;2023-02-28T07:52:09;101391.03;;;5.47;41.37
28428;BME280;15662;49.128;8.520;2023-02-28T07:54:39;101399.91;;;5.56;41.74
28428;BME280;15662;49.128;8.520;2023-02-28T07:57:08;101390.25;;;5.54;41.54
28428;BME280;15662;49.128;8.520;2023-02-28T07:59:38;101385.00;;;5.55;41.85
28428;BME280;15662;49.128;8.520;2023-02-28T08:02:09;101392.88;;;5.54;41.33
28428;BME280;15662;49.128;8.520;2023-02-28T08:04:42;101381.50;;;5.56;41.66
28428;BME280;15662;49.128;8.520;2023-02-28T08:07:13;101407.06;;;5.68;41.53
28428;BME280;15662;49.128;8.520;2023-02-28T08:09:42;101385.06;;;5.61;41.69
28428;BME280;15662;49.128;8.520;2023-02-28T08:12:13;101376.28;;;5.59;41.46
28428;BME280;15662;49.128;8.520;2023-02-28T08:14:42;101408.00;;;5.76;41.68
28428;BME280;15662;49.128;8.520;2023-02-28T08:17:14;101406.25;;;5.75;41.55
28428;BME280;15662;49.128;8.520;2023-02-28T08:19:45;101391.34;;;5.76;41.79
28428;BME280;15662;49.128;8.520;2023-02-28T08:22:14;101406.41;;;5.87;41.73
28428;BME280;15662;49.128;8.520;2023-02-28T08:24:43;101408.16;;;5.90;41.32
28428;BME280;15662;49.128;8.520;2023-02-28T08:27:13;101412.63;;;5.92;41.64
28428;BME280;15662;49.128;8.520;2023-02-28T08:29:41;101403.91;;;6.00;41.75
28428;BME280;15662;49.128;8.520;2023-02-28T08:32:12;101387.88;;;5.80;41.47
28428;BME280;15662;49.128;8.520;2023-02-28T08:34:57;101391.44;;;5.82;41.71
28428;BME280;15662;49.128;8.520;2023-02-28T08:37:26;101399.47;;;5.95;41.56
28428;BME280;15662;49.128;8.520;2023-02-28T08:39:55;101403.84;;;5.93;41.08
28428;BME280;15662;49.128;8.520;2023-02-28T08:42:24;101393.31;;;5.95;41.59
28428;BME280;15662;49.128;8.520;2023-02-28T08:44:55;101403.03;;;5.99;41.26
28428;BME280;15662;49.128;8.520;2023-02-28T08:47:23;101414.47;;;6.06;41.27
28428;BME280;15662;49.128;8.520;2023-02-28T08:49:53;101398.69;;;6.03;41.49
28428;BME280;15662;49.128;8.520;2023-02-28T08:52:23;101410.22;;;6.17;41.12
28428;BME280;15662;49.128;8.520;2023-02-28T08:54:53;101405.00;;;6.23;41.31
28428;BME280;15662;49.128;8.520;2023-02-28T08:57:22;101393.59;;;6.21;41.31
28428;BME280;15662;49.128;8.520;2023-02-28T09:00:11;101405.94;;;6.31;40.93
28428;BME280;15662;49.128;8.520;2023-02-28T09:02:44;101408.63;;;6.39;41.10
28428;BME280;15662;49.128;8.520;2023-02-28T09:05:34;101406.91;;;6.41;40.63
28428;BME280;15662;49.128;8.520;2023-02-28T09:08:02;101405.19;;;6.49;40.83
28428;BME280;15662;49.128;8.520;2023-02-28T09:10:31;101393.78;;;6.45;40.73
28428;BME280;15662;49.128;8.520;2023-02-28T09:13:01;101399.09;;;6.55;40.89
28428;BME280;15662;49.128;8.520;2023-02-28T09:15:31;101393.81;;;6.53;40.71
28428;BME280;15662;49.128;8.520;2023-02-28T09:17:59;101383.25;;;6.50;40.78
28428;BME280;15662;49.128;8.520;2023-02-28T09:20:28;101410.59;;;6.66;40.58
28428;BME280;15662;49.128;8.520;2023-02-28T09:22:56;101393.03;;;6.68;40.83
28428;BME280;15662;49.128;8.520;2023-02-28T09:25:25;101383.41;;;6.71;40.46
28428;BME280;15662;49.128;8.520;2023-02-28T09:27:54;101397.56;;;6.89;40.51
28428;BME280;15662;49.128;8.520;2023-02-28T09:30:22;101386.97;;;6.84;40.62
28428;BME280;15662;49.128;8.520;2023-02-28T09:32:51;101403.75;;;6.97;40.59
28428;BME280;15662;49.128;8.520;2023-02-28T09:35:24;101394.06;;;6.94;40.26
28428;BME280;15662;49.128;8.520;2023-02-28T09:37:56;101383.53;;;6.93;40.75
28428;BME280;15662;49.128;8.520;2023-02-28T09:40:30;101353.66;;;6.92;40.41
28428;BME280;15662;49.128;8.520;2023-02-28T09:43:05;101373.03;;;7.04;40.52
28428;BME280;15662;49.128;8.520;2023-02-28T09:45:40;101369.59;;;7.17;40.20
28428;BME280;15662;49.128;8.520;2023-02-28T09:48:16;101371.38;;;7.26;39.84
28428;BME280;15662;49.128;8.520;2023-02-28T09:53:52;101406.66;;;7.49;39.74
28428;BME280;15662;49.128;8.520;2023-02-28T09:56:39;101374.06;;;7.39;39.28
28428;BME280;15662;49.128;8.520;2023-02-28T10:05:28;101376.72;;;7.47;39.52
28428;BME280;15662;49.128;8.520;2023-02-28T10:08:24;101377.59;;;7.54;39.84
28428;BME280;15662;49.128;8.520;2023-02-28T10:11:37;101378.50;;;7.56;39.57
28428;BME280;15662;49.128;8.520;2023-02-28T10:14:35;101370.63;;;7.65;39.26
28428;BME280;15662;49.128;8.520;2023-02-28T10:17:41;101367.09;;;7.66;38.90
28428;BME280;15662;49.128;8.520;2023-02-28T10:20:25;101377.66;;;7.76;39.14
28428;BME280;15662;49.128;8.520;2023-02-28T10:23:25;101376.81;;;7.85;38.90
28428;BME280;15662;49.128;8.520;2023-02-28T10:26:08;101383.88;;;7.89;39.00
28428;BME280;15662;49.128;8.520;2023-02-28T10:28:40;101376.81;;;7.87;38.67
28428;BME280;15662;49.128;8.520;2023-02-28T10:31:20;101382.09;;;7.90;38.81
28428;BME280;15662;49.128;8.520;2023-02-28T10:33:54;101389.13;;;7.92;38.92
28428;BME280;15662;49.128;8.520;2023-02-28T10:36:28;101372.44;;;7.90;38.64
28428;BME280;15662;49.128;8.520;2023-02-28T10:39:01;101398.84;;;7.99;38.29
28428;BME280;15662;49.128;8.520;2023-02-28T10:41:57;101378.59;;;8.00;38.60
28428;BME280;15662;49.128;8.520;2023-02-28T10:44:37;101402.34;;;8.06;38.46
28428;BME280;15662;49.128;8.520;2023-02-28T10:47:13;101391.81;;;8.14;38.65
28428;BME280;15662;49.128;8.520;2023-02-28T10:49:50;101384.75;;;8.16;38.15
28428;BME280;15662;49.128;8.520;2023-02-28T10:52:53;101383.00;;;8.15;38.26
28428;BME280;15662;49.128;8.520;2023-02-28T10:55:29;101397.97;;;8.31;38.55
28428;BME280;15662;49.128;8.520;2023-02-28T10:58:28;101403.28;;;8.49;38.35
28428;BME280;15662;49.128;8.520;2023-02-28T11:03:52;101392.72;;;8.40;37.92
28428;BME280;15662;49.128;8.520;2023-02-28T11:07:21;101383.91;;;8.41;37.64
28428;BME280;15662;49.128;8.520;2023-02-28T11:10:18;101370.69;;;8.29;38.21
28428;BME280;15662;49.128;8.520;2023-02-28T11:12:49;101390.06;;;8.54;37.97
28428;BME280;15662;49.128;8.520;2023-02-28T11:16:12;101379.50;;;8.51;38.11
28428;BME280;15662;49.128;8.520;2023-02-28T11:18:58;101364.53;;;8.53;37.96
28428;BME280;15662;49.128;8.520;2023-02-28T11:21:37;101374.19;;;8.60;37.43
28428;BME280;15662;49.128;8.520;2023-02-28T11:24:43;101368.91;;;8.68;37.35
28428;BME280;15662;49.128;8.520;2023-02-28T11:29:58;101365.41;;;8.55;37.04
28428;BME280;15662;49.128;8.520;2023-02-28T11:32:29;101353.94;;;8.51;37.63
28428;BME280;15662;49.128;8.520;2023-02-28T11:35:17;101361.00;;;8.54;37.47
28428;BME280;15662;49.128;8.520;2023-02-28T11:37:50;101360.09;;;8.52;37.33
28428;BME280;15662;49.128;8.520;2023-02-28T11:40:58;101369.78;;;8.61;37.18
28428;BME280;15662;49.128;8.520;2023-02-28T11:46:54;101350.41;;;8.60;37.05
28428;BME280;15662;49.128;8.520;2023-02-28T11:52:48;101371.53;;;8.75;37.50
28428;BME280;15662;49.128;8.520;2023-02-28T11:58:24;101361.75;;;8.96;37.04
28428;BME280;15662;49.128;8.520;2023-02-28T12:01:08;101362.63;;;9.01;37.14
28428;BME280;15662;49.128;8.520;2023-02-28T12:10:26;101353.78;;;9.11;36.49
28428;BME280;15662;49.128;8.520;2023-02-28T12:16:23;101353.72;;;9.25;36.54
28428;BME280;15662;49.128;8.520;2023-02-28T12:22:17;101336.13;;;9.22;36.27
28428;BME280;15662;49.128;8.520;2023-02-28T12:27:45;101327.16;;;9.45;36.41
28428;BME280;15662;49.128;8.520;2023-02-28T12:30:25;101335.94;;;9.53;36.33
28428;BME280;15662;49.128;8.520;2023-02-28T12:33:12;101325.34;;;9.56;35.95
28428;BME280;15662;49.128;8.520;2023-02-28T12:35:59;101312.09;;;9.61;36.05
28428;BME280;15662;49.128;8.520;2023-02-28T12:41:56;101315.47;;;9.81;36.12
28428;BME280;15662;49.128;8.520;2023-02-28T12:47:16;101322.22;;;10.20;35.95
28428;BME280;15662;49.128;8.520;2023-02-28T12:50:06;101333.53;;;10.41;35.73
28428;BME280;15662;49.128;8.520;2023-02-28T13:02:22;101326.09;;;10.75;35.52
28428;BME280;15662;49.128;8.520;2023-02-28T13:08:27;101310.19;;;10.73;34.97
28428;BME280;15662;49.128;8.520;2023-02-28T13:11:07;101307.66;;;10.63;35.12
28428;BME280;15662;49.128;8.520;2023-02-28T13:20:13;101330.50;;;10.76;34.77
28428;BME280;15662;49.128;8.520;2023-02-28T13:22:50;101294.41;;;10.63;34.65
28428;BME280;15662;49.128;8.520;2023-02-28T13:28:13;101323.47;;;10.72;34.75
28428;BME280;15662;49.128;8.520;2023-02-28T13:41:41;101301.25;;;10.82;34.63
28428;BME280;15662;49.128;8.520;2023-02-28T13:44:15;101298.66;;;10.77;34.52
28428;BME280;15662;49.128;8.520;2023-02-28T13:55:14;101319.03;;;10.75;34.27
28428;BME280;15662;49.128;8.520;2023-02-28T14:06:33;101311.94;;;10.76;33.99
28428;BME280;15662;49.128;8.520;2023-02-28T14:09:38;101323.44;;;10.73;34.16
28428;BME280;15662;49.128;8.520;2023-02-28T14:18:37;101327.19;;;10.55;34.12
28428;BME280;15662;49.128;8.520;2023-02-28T14:21:28;101310.44;;;10.49;34.31
28428;BME280;15662;49.128;8.520;2023-02-28T14:31:01;101322.78;;;10.56;34.10
28428;BME280;15662;49.128;8.520;2023-02-28T14:36:37;101295.47;;;10.46;33.92
28428;BME280;15662;49.128;8.520;2023-02-28T14:39:22;101324.50;;;10.60;33.77
28428;BME280;15662;49.128;8.520;2023-02-28T14:41:52;101295.44;;;10.51;34.12
28428;BME280;15662;49.128;8.520;2023-02-28T14:44:26;101290.13;;;10.51;33.66
28428;BME280;15662;49.128;8.520;2023-02-28T14:46:57;101286.75;;;10.35;34.01
28428;BME280;15662;49.128;8.520;2023-02-28T14:49:31;101296.38;;;10.45;34.05
28428;BME280;15662;49.128;8.520;2023-02-28T14:54:42;101297.19;;;10.49;33.95
28428;BME280;15662;49.128;8.520;2023-02-28T14:57:33;101290.94;;;10.56;33.71
28428;BME280;15662;49.128;8.520;2023-02-28T15:00:31;101298.09;;;10.51;33.76
28428;BME280;15662;49.128;8.520;2023-02-28T15:03:33;101302.56;;;10.43;33.67
28428;BME280;15662;49.128;8.520;2023-02-28T15:06:15;101291.06;;;10.47;33.95
28428;BME280;15662;49.128;8.520;2023-02-28T15:11:47;101300.66;;;10.57;33.77
28428;BME280;15662;49.128;8.520;2023-02-28T15:14:25;101313.84;;;10.65;33.70
28428;BME280;15662;49.128;8.520;2023-02-28T15:17:01;101312.06;;;10.65;33.49
28428;BME280;15662;49.128;8.520;2023-02-28T15:19:36;101308.59;;;10.58;33.75
28428;BME280;15662;49.128;8.520;2023-02-28T15:22:16;101310.28;;;10.66;33.62
28428;BME280;15662;49.128;8.520;2023-02-28T15:24:50;101306.84;;;10.59;33.48
28428;BME280;15662;49.128;8.520;2023-02-28T15:27:30;101305.00;;;10.64;33.64
28428;BME280;15662;49.128;8.520;2023-02-28T15:30:06;101308.66;;;10.52;33.77
28428;BME280;15662;49.128;8.520;2023-02-28T15:32:38;101281.38;;;10.43;33.58
28428;BME280;15662;49.128;8.520;2023-02-28T15:35:31;101322.84;;;10.48;33.42
28428;BME280;15662;49.128;8.520;2023-02-28T15:40:58;101311.44;;;10.40;33.54
28428;BME280;15662;49.128;8.520;2023-02-28T15:43:32;101310.56;;;10.40;33.78
28428;BME280;15662;49.128;8.520;2023-02-28T15:46:12;101312.31;;;10.41;33.78
28428;BME280;15662;49.128;8.520;2023-02-28T15:48:53;101319.38;;;10.42;33.65
28428;BME280;15662;49.128;8.520;2023-02-28T15:51:31;101307.94;;;10.37;33.76
28428;BME280;15662;49.128;8.520;2023-02-28T15:54:12;101316.78;;;10.36;33.62
28428;BME280;15662;49.128;8.520;2023-02-28T15:56:51;101295.69;;;10.26;33.71
28428;BME280;15662;49.128;8.520;2023-02-28T15:59:28;101310.69;;;10.26;33.81
28428;BME280;15662;49.128;8.520;2023-02-28T16:02:19;101312.47;;;10.22;33.58
28428;BME280;15662;49.128;8.520;2023-02-28T16:07:43;101313.50;;;10.06;34.07
28428;BME280;15662;49.128;8.520;2023-02-28T16:10:15;101294.16;;;9.95;33.83
28428;BME280;15662;49.128;8.520;2023-02-28T16:12:43;101307.31;;;10.05;33.77
28428;BME280;15662;49.128;8.520;2023-02-28T16:15:28;101295.91;;;9.97;33.89
28428;BME280;15662;49.128;8.520;2023-02-28T16:17:58;101313.53;;;10.01;33.79
28428;BME280;15662;49.128;8.520;2023-02-28T16:20:29;101302.13;;;9.92;33.93
28428;BME280;15662;49.128;8.520;2023-02-28T16:23:02;101321.50;;;9.98;34.11
28428;BME280;15662;49.128;8.520;2023-02-28T16:25:42;101310.03;;;9.98;34.08